Terminal Aerodrome Forecast
Issued by NWS

Home | Current Version | Previous Version | Text Only | Print | Product List | Glossary On
Versions: 1 2 3 4 5 6 7 8 9 10 11 12 13 14 15 16 17 18 19
000
FTUS46 KLOX 190500
TAFLGB
TAF
KLGB 190532Z 1906/2006 VRB03KT P6SM BKN200
     FM191000 VRB03KT P6SM OVC015
     FM191800 20007KT P6SM SCT250
     FM200000 29008KT P6SM SCT250
     FM200500 VRB03KT P6SM SCT250=

USA.gov is the U.S. government's official web portal to all federal, state and local government web resources and services.